Time;durP1;ratioP1;P1;durP2;ratioP2;P2;SDS_P1;SDS_P2;PMS_P1;PMS_P2;Temp;Humidity;BMP_temperature;BMP_pressure;BME280_temperature;BME280_humidity;BME280_pressure;Samples;Min_cycle;Max_cycle;Signal;HPM_P1;HPM_P2
2023/04/05 00:00:31;;;;;;;8.68;4.10;;;0.30;99.90;;;;;;4938111;28;20038;-82
2023/04/05 00:02:58;;;;;;;11.82;4.07;;;0.60;99.90;;;;;;4937265;28;20109;-82
2023/04/05 00:05:29;;;;;;;9.77;3.83;;;0.30;99.90;;;;;;4937431;28;20526;-82
2023/04/05 00:07:58;;;;;;;10.90;4.38;;;1.40;99.90;;;;;;4953802;28;20379;-82
2023/04/05 00:10:23;;;;;;;11.35;4.38;;;0.70;99.90;;;;;;4936826;28;20061;-82
2023/04/05 00:12:50;;;;;;;7.88;4.10;;;0.70;99.90;;;;;;4937746;28;20047;-82
2023/04/05 00:15:15;;;;;;;11.25;4.57;;;0.10;99.90;;;;;;4954019;28;20051;-82
2023/04/05 00:17:42;;;;;;;8.73;4.30;;;0.50;99.90;;;;;;4936492;28;20069;-82
2023/04/05 00:20:10;;;;;;;9.75;4.57;;;0.20;99.90;;;;;;4953946;28;20075;-82
2023/04/05 00:22:37;;;;;;;9.88;4.90;;;0.10;99.90;;;;;;4936257;28;20043;-80
2023/04/05 00:25:04;;;;;;;13.45;4.68;;;0.00;99.90;;;;;;4937873;28;20038;-81
2023/04/05 00:27:30;;;;;;;9.90;3.83;;;0.00;99.90;;;;;;4937923;28;20057;-81
2023/04/05 00:29:55;;;;;;;10.10;4.63;;;0.00;99.90;;;;;;4952597;28;20122;-81
2023/04/05 00:32:21;;;;;;;8.75;4.43;;;0.00;99.90;;;;;;4953574;28;20082;-80
2023/04/05 00:34:47;;;;;;;11.48;4.85;;;0.00;99.90;;;;;;4952616;28;20041;-81
2023/04/05 00:37:13;;;;;;;8.05;4.75;;;0.90;99.90;;;;;;4935731;28;20042;-81
2023/04/05 00:39:39;;;;;;;10.88;4.75;;;-0.10;99.90;;;;;;4952938;28;20077;-81
2023/04/05 00:42:05;;;;;;;8.10;4.28;;;-0.20;99.90;;;;;;4952485;28;20061;-81
2023/04/05 00:44:34;;;;;;;10.70;4.72;;;-0.10;99.90;;;;;;4936722;28;20130;-81
2023/04/05 00:47:02;;;;;;;11.27;4.80;;;0.10;99.90;;;;;;4936920;28;20047;-80
2023/04/05 00:49:30;;;;;;;8.20;4.55;;;-0.20;99.90;;;;;;4937555;28;20043;-80
2023/04/05 00:51:56;;;;;;;10.52;4.78;;;-0.20;99.90;;;;;;4934796;28;20146;-80
2023/04/05 00:54:24;;;;;;;10.50;4.90;;;-0.20;99.90;;;;;;4952921;28;20078;-81
2023/04/05 00:56:52;;;;;;;10.32;4.63;;;-0.20;99.90;;;;;;4936676;28;20054;-81
2023/04/05 00:59:18;;;;;;;9.05;4.90;;;-0.20;99.90;;;;;;4951209;28;20078;-81
2023/04/05 01:01:53;;;;;;;10.82;5.28;;;-0.20;99.90;;;;;;4952338;28;20486;-81
2023/04/05 01:04:24;;;;;;;13.98;5.35;;;-0.20;99.90;;;;;;4952774;28;20506;-81
2023/04/05 01:07:06;;;;;;;10.88;4.90;;;-0.20;99.90;;;;;;4950541;28;20051;-81
2023/04/05 01:09:46;;;;;;;10.93;5.25;;;-0.20;99.90;;;;;;4936446;28;20065;-80
2023/04/05 01:12:16;;;;;;;8.77;5.10;;;-0.30;99.90;;;;;;4951024;28;20522;-81
2023/04/05 01:14:44;;;;;;;9.02;5.45;;;0.20;99.90;;;;;;4936647;28;20050;-81
2023/04/05 01:17:10;;;;;;;9.60;5.60;;;0.50;99.90;;;;;;4949726;28;20105;-80
2023/04/05 01:19:40;;;;;;;9.85;5.22;;;-0.30;99.90;;;;;;4951581;28;20058;-80
2023/04/05 01:22:16;;;;;;;17.15;5.88;;;0.20;99.90;;;;;;4951020;28;20122;-80
2023/04/05 01:25:05;;;;;;;11.07;5.75;;;-0.30;99.90;;;;;;4952395;28;20074;-81
2023/04/05 01:27:43;;;;;;;11.18;5.90;;;-0.20;99.90;;;;;;4951790;28;20361;-81
2023/04/05 01:30:17;;;;;;;15.05;5.90;;;-0.30;99.90;;;;;;4951828;28;20444;-81
2023/04/05 01:32:56;;;;;;;9.63;5.15;;;-0.30;99.90;;;;;;4936067;28;20418;-80
2023/04/05 01:35:54;;;;;;;11.43;5.75;;;-0.20;99.90;;;;;;4969606;28;20054;-80
2023/04/05 01:38:24;;;;;;;9.80;5.75;;;-0.30;99.90;;;;;;4935706;28;20049;-80
2023/04/05 01:40:50;;;;;;;14.30;6.00;;;-0.20;99.90;;;;;;4950915;28;20055;-80
2023/04/05 01:43:17;;;;;;;12.85;5.60;;;-0.40;99.90;;;;;;4951625;28;20082;-80
2023/04/05 01:45:44;;;;;;;9.75;5.75;;;0.60;99.90;;;;;;4951982;28;20054;-80
2023/04/05 01:48:10;;;;;;;12.18;6.18;;;-0.50;99.90;;;;;;4950847;28;20053;-81
2023/04/05 01:50:36;;;;;;;11.52;5.63;;;0.10;99.90;;;;;;4951266;28;20035;-80
2023/04/05 01:53:02;;;;;;;11.88;5.65;;;-0.60;99.90;;;;;;4952175;28;20375;-80
2023/04/05 01:55:28;;;;;;;9.60;6.25;;;-0.30;99.90;;;;;;4950419;28;20502;-80
2023/04/05 01:57:55;;;;;;;14.43;6.30;;;-0.60;99.90;;;;;;4935682;28;20050;-80
2023/04/05 02:00:21;;;;;;;12.35;6.05;;;-0.60;99.90;;;;;;4951241;28;20047;-79
2023/04/05 02:02:47;;;;;;;11.05;5.82;;;-0.60;99.90;;;;;;4968437;28;20086;-80
2023/04/05 02:05:13;;;;;;;11.18;5.75;;;-0.70;99.90;;;;;;4951748;28;20129;-80
2023/04/05 02:07:38;;;;;;;14.35;6.22;;;-0.70;99.90;;;;;;4950242;28;20513;-80
2023/04/05 02:10:05;;;;;;;15.90;6.82;;;-0.70;99.90;;;;;;4950405;28;20384;-80
2023/04/05 02:12:30;;;;;;;13.63;6.40;;;-0.70;99.90;;;;;;4935158;28;20050;-80
2023/04/05 02:14:57;;;;;;;14.85;6.10;;;-0.30;99.90;;;;;;4951830;28;20039;-79
2023/04/05 02:17:23;;;;;;;13.13;6.35;;;-0.80;99.90;;;;;;4948123;28;20109;-79
2023/04/05 02:19:51;;;;;;;14.15;6.80;;;-0.60;99.90;;;;;;4950687;28;20054;-79
2023/04/05 02:22:18;;;;;;;10.95;6.22;;;-0.70;99.90;;;;;;4933888;28;20117;-79
2023/04/05 02:24:43;;;;;;;12.88;6.90;;;-0.70;99.90;;;;;;4950487;28;20094;-79
2023/04/05 02:27:09;;;;;;;12.85;6.63;;;0.10;99.90;;;;;;4951061;28;20058;-80
2023/04/05 02:29:35;;;;;;;10.73;6.10;;;-0.70;99.90;;;;;;4950279;28;20046;-79
2023/04/05 02:32:01;;;;;;;16.35;6.50;;;-0.70;99.90;;;;;;4951053;28;20051;-79
2023/04/05 02:34:27;;;;;;;12.60;6.60;;;-0.20;99.90;;;;;;4951708;28;20415;-79
2023/04/05 02:36:54;;;;;;;12.63;6.82;;;-0.10;99.90;;;;;;4949068;28;20084;-80
2023/04/05 02:39:19;;;;;;;10.48;6.32;;;-0.80;99.90;;;;;;4951220;28;20046;-80
2023/04/05 02:41:45;;;;;;;10.15;6.20;;;-0.80;99.90;;;;;;4950404;28;20053;-80
2023/04/05 02:44:12;;;;;;;14.00;7.20;;;-0.20;99.90;;;;;;4934463;28;20053;-80
2023/04/05 02:46:38;;;;;;;11.38;6.13;;;-0.90;99.90;;;;;;4934658;28;20045;-80
2023/04/05 02:49:04;;;;;;;11.75;5.85;;;-0.90;99.90;;;;;;4934616;28;20043;-80
2023/04/05 02:51:29;;;;;;;12.15;5.57;;;-0.90;99.90;;;;;;4949868;28;20046;-80
2023/04/05 02:53:55;;;;;;;12.75;6.07;;;-1.00;99.90;;;;;;4934576;28;20538;-80
2023/04/05 02:56:21;;;;;;;10.32;6.10;;;-1.10;99.90;;;;;;4951111;28;20422;-80
2023/04/05 02:58:48;;;;;;;11.98;6.38;;;-0.90;99.90;;;;;;4933964;28;20456;-80
2023/04/05 03:01:16;;;;;;;10.13;6.22;;;-0.90;99.90;;;;;;4934198;28;20130;-80
2023/04/05 03:03:42;;;;;;;8.00;5.30;;;-1.20;99.90;;;;;;4950655;28;20357;-80
2023/04/05 03:06:08;;;;;;;9.68;5.32;;;-1.20;99.90;;;;;;4948769;28;20050;-80
2023/04/05 03:08:37;;;;;;;4.43;2.92;;;-1.30;99.90;;;;;;4950591;28;20438;-80
2023/04/05 03:11:05;;;;;;;11.15;5.88;;;-1.30;99.90;;;;;;4950046;28;20126;-80
2023/04/05 03:13:31;;;;;;;14.25;8.70;;;-1.40;99.90;;;;;;4934459;28;20043;-80
2023/04/05 03:15:57;;;;;;;14.45;8.00;;;-0.70;99.90;;;;;;4950389;28;20133;-79
2023/04/05 03:18:24;;;;;;;18.52;8.48;;;-1.40;99.90;;;;;;4933992;28;20054;-80
2023/04/05 03:20:57;;;;;;;18.55;8.20;;;-1.30;99.90;;;;;;4934082;28;20456;-80
2023/04/05 03:23:28;;;;;;;18.00;9.10;;;-0.60;99.90;;;;;;4954797;28;20073;-80
2023/04/05 03:25:58;;;;;;;15.50;8.60;;;-1.20;99.90;;;;;;4937301;28;20126;-80
2023/04/05 03:28:25;;;;;;;17.45;8.07;;;-1.30;99.90;;;;;;4954689;28;20053;-80
2023/04/05 03:30:50;;;;;;;14.95;8.00;;;-1.10;99.90;;;;;;4938175;28;20130;-80
2023/04/05 03:33:17;;;;;;;18.55;7.90;;;-1.30;99.90;;;;;;4953588;28;20150;-80
2023/04/05 03:35:43;;;;;;;15.68;8.25;;;-0.20;99.90;;;;;;4937416;28;20053;-80
2023/04/05 03:38:09;;;;;;;16.48;7.65;;;-1.40;99.90;;;;;;4938131;28;20042;-80
2023/04/05 03:40:34;;;;;;;12.88;7.97;;;-1.40;99.90;;;;;;4953133;28;20435;-80
2023/04/05 03:43:00;;;;;;;14.13;8.32;;;-1.40;99.90;;;;;;4953778;28;20043;-80
2023/04/05 03:45:28;;;;;;;14.00;8.68;;;-1.40;99.90;;;;;;4954228;28;20125;-80
2023/04/05 03:47:54;;;;;;;17.13;8.65;;;-1.50;99.90;;;;;;4937377;28;20043;-80
2023/04/05 03:50:20;;;;;;;16.75;8.43;;;-1.50;99.90;;;;;;4953797;28;20133;-80
2023/04/05 03:52:46;;;;;;;17.05;7.93;;;-1.00;99.90;;;;;;4953211;28;20117;-80
2023/04/05 03:55:13;;;;;;;18.70;8.60;;;-1.00;99.90;;;;;;4952683;28;20082;-80
2023/04/05 03:57:39;;;;;;;19.50;8.63;;;-1.50;99.90;;;;;;4953905;28;20035;-81
2023/04/05 04:00:13;;;;;;;19.00;9.32;;;-1.50;99.90;;;;;;4953466;28;20565;-81
2023/04/05 04:02:42;;;;;;;18.05;9.88;;;-1.50;99.90;;;;;;4952875;28;20058;-81
2023/04/05 04:05:07;;;;;;;15.60;9.50;;;-1.50;99.90;;;;;;4937558;28;20039;-81
2023/04/05 04:07:33;;;;;;;16.65;8.68;;;-1.50;99.90;;;;;;4952538;28;20485;-81
2023/04/05 04:09:59;;;;;;;12.88;7.65;;;-1.50;99.90;;;;;;4953227;28;20133;-81
2023/04/05 04:12:24;;;;;;;13.88;8.30;;;-0.70;99.90;;;;;;4953331;28;20482;-81
2023/04/05 04:14:50;;;;;;;13.98;8.10;;;-1.60;99.90;;;;;;4953130;28;20057;-81
2023/04/05 04:17:30;;;;;;;14.38;9.32;;;-0.50;99.90;;;;;;4950348;28;20457;-81
2023/04/05 04:19:56;;;;;;;14.50;8.65;;;-1.70;99.90;;;;;;4952764;28;20038;-81
2023/04/05 04:22:25;;;;;;;16.88;8.82;;;-1.70;99.90;;;;;;4943218;28;20058;-81
2023/04/05 04:24:52;;;;;;;13.88;9.70;;;-1.70;99.90;;;;;;4936031;28;20047;-81
2023/04/05 04:27:19;;;;;;;17.52;9.63;;;-1.70;99.90;;;;;;4919437;29;20487;-81
2023/04/05 04:29:46;;;;;;;16.55;9.13;;;-0.90;99.90;;;;;;4935477;28;20038;-81
2023/04/05 04:32:14;;;;;;;16.27;9.75;;;-1.70;99.90;;;;;;4934728;29;20414;-81
2023/04/05 04:34:43;;;;;;;18.42;10.85;;;-1.70;99.90;;;;;;4937731;28;20046;-81
2023/04/05 04:37:21;;;;;;;16.08;9.80;;;-0.80;99.90;;;;;;4935807;28;20054;-81
2023/04/05 04:39:48;;;;;;;22.23;11.48;;;-1.70;99.90;;;;;;4952786;28;20050;-81
2023/04/05 04:42:18;;;;;;;18.33;9.90;;;-1.80;99.90;;;;;;4952862;28;20070;-81
2023/04/05 04:44:45;;;;;;;20.05;11.73;;;-1.30;99.90;;;;;;4952004;28;20058;-81
2023/04/05 04:47:12;;;;;;;21.90;10.98;;;-1.80;99.90;;;;;;4952846;28;20058;-81
2023/04/05 04:49:40;;;;;;;20.88;10.45;;;-1.80;99.90;;;;;;4936700;28;20081;-82
2023/04/05 04:52:06;;;;;;;17.17;10.75;;;-1.80;99.90;;;;;;4935404;28;20119;-81
2023/04/05 04:54:33;;;;;;;20.27;10.30;;;-1.80;99.90;;;;;;4936660;28;20105;-81
2023/04/05 04:57:00;;;;;;;19.58;12.00;;;-1.90;99.90;;;;;;4952204;28;20058;-81
2023/04/05 04:59:27;;;;;;;23.50;12.48;;;-1.90;99.90;;;;;;4953305;28;20057;-81
2023/04/05 05:01:52;;;;;;;22.33;12.60;;;-1.90;99.90;;;;;;4952036;28;20051;-81
2023/04/05 05:04:18;;;;;;;21.50;12.68;;;-1.90;99.90;;;;;;4952273;28;20034;-80
2023/04/05 05:06:44;;;;;;;19.13;8.32;;;-1.90;99.90;;;;;;4951193;28;20108;-81
2023/04/05 05:09:09;;;;;;;10.85;7.25;;;-1.20;99.90;;;;;;4952667;28;20043;-81
2023/04/05 05:11:35;;;;;;;12.85;6.78;;;-2.00;99.90;;;;;;4935590;28;20058;-81
2023/04/05 05:14:01;;;;;;;16.80;9.27;;;-1.20;99.90;;;;;;4952252;28;20077;-81
2023/04/05 05:16:27;;;;;;;21.83;12.95;;;-2.00;99.90;;;;;;4934163;28;20039;-80
2023/04/05 05:18:53;;;;;;;18.42;11.98;;;-1.50;99.90;;;;;;4935515;28;20137;-81
2023/04/05 05:21:19;;;;;;;22.98;10.73;;;-2.00;99.90;;;;;;4935702;28;20067;-81
2023/04/05 05:23:45;;;;;;;28.58;12.25;;;-2.00;99.90;;;;;;4952365;28;20439;-81
2023/04/05 05:26:13;;;;;;;20.20;12.85;;;-1.40;99.90;;;;;;4950872;28;20089;-81
2023/04/05 05:28:39;;;;;;;22.13;12.75;;;-1.90;99.90;;;;;;4952526;28;20495;-81
2023/04/05 05:31:05;;;;;;;27.23;14.32;;;-1.80;99.90;;;;;;4951606;28;20439;-80
2023/04/05 05:33:31;;;;;;;23.27;14.63;;;-1.80;99.90;;;;;;4951786;28;20085;-81
2023/04/05 05:35:57;;;;;;;25.38;16.27;;;-1.70;99.90;;;;;;4951408;28;20051;-81
2023/04/05 05:38:22;;;;;;;26.17;15.60;;;-0.90;99.90;;;;;;4951869;28;20097;-81
2023/04/05 05:40:53;;;;;;;28.20;16.63;;;-1.70;99.90;;;;;;4950989;28;20047;-81
2023/04/05 05:43:19;;;;;;;26.25;15.80;;;-1.60;99.90;;;;;;4951587;28;20057;-82
2023/04/05 05:45:45;;;;;;;29.05;17.15;;;-1.50;99.90;;;;;;4949898;28;20039;-82
2023/04/05 05:48:11;;;;;;;24.73;15.45;;;-0.80;99.90;;;;;;4919054;29;20505;-81
2023/04/05 05:50:38;;;;;;;31.95;16.10;;;-1.40;99.90;;;;;;4934913;28;20499;-81
2023/04/05 05:53:04;;;;;;;30.88;16.25;;;-0.60;99.90;;;;;;4920575;29;20043;-80
2023/04/05 05:55:30;;;;;;;29.50;15.73;;;-0.90;99.90;;;;;;4937610;28;20042;-81
2023/04/05 05:57:55;;;;;;;25.58;15.70;;;-1.10;99.90;;;;;;4922544;29;20046;-82
2023/04/05 06:00:21;;;;;;;23.60;16.25;;;-0.60;99.90;;;;;;4936196;28;20043;-82
2023/04/05 06:02:48;;;;;;;27.60;16.80;;;0.20;99.90;;;;;;4921771;29;20832;-82
2023/04/05 06:05:14;;;;;;;29.75;17.27;;;-0.90;99.90;;;;;;4920603;28;20186;-82
2023/04/05 06:07:39;;;;;;;28.52;16.65;;;-0.10;99.90;;;;;;4918963;29;20161;-82
2023/04/05 06:10:06;;;;;;;25.75;16.10;;;-0.70;99.90;;;;;;4936715;28;20134;-82
2023/04/05 06:12:32;;;;;;;26.88;16.40;;;-0.70;99.90;;;;;;4931515;28;20048;-81
2023/04/05 06:15:00;;;;;;;24.30;15.85;;;-0.60;99.90;;;;;;4922889;28;20058;-81
2023/04/05 06:17:26;;;;;;;27.15;16.27;;;-0.60;99.90;;;;;;4939473;28;20064;-82
2023/04/05 06:19:52;;;;;;;23.45;15.40;;;-0.50;99.90;;;;;;4939042;28;20070;-82
2023/04/05 06:22:18;;;;;;;25.15;15.48;;;-0.40;99.90;;;;;;4921513;29;20051;-82
2023/04/05 06:24:44;;;;;;;30.00;16.08;;;-0.30;99.90;;;;;;4942839;28;20069;-82
2023/04/05 06:27:10;;;;;;;23.38;14.73;;;-0.30;99.90;;;;;;4922015;29;20051;-82
2023/04/05 06:29:35;;;;;;;23.40;14.65;;;0.20;99.90;;;;;;4921122;28;20186;-82
2023/04/05 06:32:01;;;;;;;22.98;15.63;;;-0.10;99.90;;;;;;4937032;29;20043;-82
2023/04/05 06:34:26;;;;;;;24.73;15.05;;;0.50;99.90;;;;;;4937486;28;20127;-82
2023/04/05 06:36:52;;;;;;;27.52;15.50;;;0.10;99.90;;;;;;4932378;28;20073;-82
2023/04/05 06:39:18;;;;;;;20.20;13.88;;;0.30;99.90;;;;;;4919831;28;20039;-82
2023/04/05 06:41:44;;;;;;;25.25;14.57;;;0.90;99.90;;;;;;4914655;29;20051;-82
2023/04/05 06:44:10;;;;;;;26.83;14.70;;;0.30;99.90;;;;;;4933375;28;20051;-82
2023/04/05 06:46:35;;;;;;;26.23;14.13;;;0.70;99.90;;;;;;4933654;28;20089;-81
2023/04/05 06:49:01;;;;;;;24.27;14.32;;;0.60;99.90;;;;;;4932619;28;20063;-81
2023/04/05 06:51:27;;;;;;;28.13;13.98;;;0.80;99.90;;;;;;4933318;28;20061;-81
2023/04/05 06:53:54;;;;;;;20.33;13.38;;;1.00;99.90;;;;;;4932064;28;20135;-81
2023/04/05 06:56:20;;;;;;;23.00;14.07;;;1.00;99.90;;;;;;4932859;28;20503;-81
2023/04/05 06:58:46;;;;;;;25.27;13.63;;;1.90;99.90;;;;;;4945763;28;20379;-82
2023/04/05 07:01:12;;;;;;;22.58;12.82;;;1.30;99.90;;;;;;4923383;28;20043;-81
2023/04/05 07:03:38;;;;;;;25.30;12.32;;;1.70;99.90;;;;;;4931565;28;20053;-81
2023/04/05 07:06:05;;;;;;;18.77;12.35;;;1.60;99.90;;;;;;4948543;28;20372;-82
2023/04/05 07:08:31;;;;;;;18.10;12.23;;;1.10;99.90;;;;;;4947152;28;20047;-82
2023/04/05 07:10:57;;;;;;;19.25;11.93;;;1.20;99.90;;;;;;4947192;28;20059;-81
2023/04/05 07:13:24;;;;;;;17.65;11.88;;;1.30;99.90;;;;;;4931656;28;20439;-82
2023/04/05 07:15:51;;;;;;;19.95;11.80;;;1.30;99.90;;;;;;4949837;28;20043;-82
2023/04/05 07:18:18;;;;;;;20.80;12.60;;;1.70;99.90;;;;;;4933114;28;20050;-80
2023/04/05 07:20:47;;;;;;;17.25;11.82;;;1.50;99.90;;;;;;4928221;29;20043;-82
2023/04/05 07:23:13;;;;;;;18.63;12.30;;;1.60;99.90;;;;;;4925403;28;20140;-82
2023/04/05 07:25:40;;;;;;;15.98;11.23;;;1.70;99.90;;;;;;4949763;28;20090;-83
2023/04/05 07:28:06;;;;;;;17.27;11.75;;;2.30;99.90;;;;;;4934354;28;20440;-83
2023/04/05 07:30:31;;;;;;;16.52;10.80;;;2.50;99.90;;;;;;4930640;29;20178;-83
2023/04/05 07:32:57;;;;;;;17.13;11.23;;;1.90;99.90;;;;;;4928381;28;20494;-82
2023/04/05 07:35:23;;;;;;;16.63;10.73;;;2.30;99.90;;;;;;4930682;29;20051;-81
2023/04/05 07:37:51;;;;;;;16.70;11.45;;;2.10;99.90;;;;;;4916151;28;20078;-82
2023/04/05 07:40:17;;;;;;;19.45;10.80;;;2.30;99.90;;;;;;4915179;29;20055;-82
2023/04/05 07:42:42;;;;;;;18.58;10.68;;;2.80;99.90;;;;;;4936905;28;20383;-82
2023/04/05 07:45:08;;;;;;;18.35;11.02;;;2.50;99.90;;;;;;4927484;29;20091;-82
2023/04/05 07:47:34;;;;;;;15.18;10.65;;;2.60;99.90;;;;;;4937951;28;20054;-82
2023/04/05 07:50:00;;;;;;;18.95;10.95;;;2.60;99.90;;;;;;4937071;28;20418;-82
2023/04/05 07:52:26;;;;;;;16.85;10.90;;;2.70;99.90;;;;;;4946336;28;20231;-83
2023/04/05 07:54:51;;;;;;;15.85;10.55;;;3.40;99.90;;;;;;4945831;28;20078;-81
2023/04/05 07:57:18;;;;;;;16.23;10.98;;;2.90;99.90;;;;;;4930910;28;20049;-83
2023/04/05 07:59:45;;;;;;;17.13;10.73;;;3.90;99.90;;;;;;4928585;29;20114;-82
2023/04/05 08:02:10;;;;;;;16.15;10.13;;;3.40;99.90;;;;;;4937910;28;20378;-83
2023/04/05 08:04:36;;;;;;;18.30;11.00;;;3.20;99.90;;;;;;4936546;29;20125;-83
2023/04/05 08:07:02;;;;;;;19.65;10.27;;;3.30;99.90;;;;;;4947841;28;20490;-83
2023/04/05 08:09:27;;;;;;;21.02;10.77;;;4.10;99.90;;;;;;4939256;29;20051;-83
2023/04/05 08:11:53;;;;;;;24.83;10.30;;;3.50;99.90;;;;;;4927372;28;20459;-83
2023/04/05 08:14:19;;;;;;;18.60;10.93;;;3.50;99.90;;;;;;4932837;29;20130;-83
2023/04/05 08:16:45;;;;;;;14.90;9.00;;;3.70;99.90;;;;;;4927051;28;20046;-83
2023/04/05 08:19:10;;;;;;;17.52;9.82;;;4.60;99.90;;;;;;4933571;29;20042;-83
2023/04/05 08:21:36;;;;;;;19.65;9.90;;;4.60;99.90;;;;;;4938844;28;20043;-84
2023/04/05 08:24:02;;;;;;;14.88;9.02;;;4.70;99.90;;;;;;4936646;29;20047;-85
2023/04/05 08:26:27;;;;;;;20.48;9.40;;;4.10;99.90;;;;;;4945746;28;20118;-84
2023/04/05 08:28:53;;;;;;;18.92;9.48;;;4.10;99.90;;;;;;4943146;28;20078;-84
2023/04/05 08:31:19;;;;;;;16.67;9.70;;;4.40;99.90;;;;;;4930621;28;20035;-84
2023/04/05 08:33:45;;;;;;;15.98;9.32;;;5.30;99.90;;;;;;4946706;28;20735;-84
2023/04/05 08:36:11;;;;;;;14.75;8.07;;;4.40;99.90;;;;;;4949144;28;20078;-85
2023/04/05 08:38:37;;;;;;;11.57;8.23;;;4.50;99.90;;;;;;4937296;28;20113;-84
2023/04/05 08:41:15;;;;;;;22.35;8.43;;;4.60;99.90;;;;;;4936189;28;20368;-84
2023/04/05 08:43:55;;;;;;;14.05;7.93;;;4.70;99.90;;;;;;4952484;28;20058;-84
2023/04/05 08:46:21;;;;;;;16.40;7.82;;;4.80;99.90;;;;;;4937237;28;20095;-84
2023/04/05 08:48:47;;;;;;;14.90;7.40;;;5.00;99.90;;;;;;4936697;28;20043;-83
2023/04/05 08:51:18;;;;;;;15.93;8.20;;;5.00;99.90;;;;;;4951494;28;20426;-84
2023/04/05 08:53:44;;;;;;;16.05;7.30;;;5.20;99.90;;;;;;4952339;28;20054;-83
2023/04/05 08:56:14;;;;;;;11.50;6.82;;;5.60;99.90;;;;;;4951992;28;20053;-83
2023/04/05 08:58:45;;;;;;;13.80;6.53;;;5.20;99.90;;;;;;4936748;28;20137;-83
2023/04/05 09:01:10;;;;;;;21.90;7.53;;;5.30;99.90;;;;;;4936825;28;20149;-84
2023/04/05 09:03:39;;;;;;;14.07;7.15;;;5.40;99.90;;;;;;4935475;28;20043;-84
2023/04/05 09:06:08;;;;;;;11.02;7.15;;;5.50;99.90;;;;;;4935932;28;20179;-84
2023/04/05 09:08:33;;;;;;;13.27;7.07;;;5.60;99.90;;;;;;4936696;28;20058;-84
2023/04/05 09:10:59;;;;;;;16.77;7.75;;;5.70;99.90;;;;;;4951897;28;20384;-83
2023/04/05 09:13:25;;;;;;;11.27;6.70;;;5.80;99.90;;;;;;4952535;28;20604;-85
2023/04/05 09:15:51;;;;;;;13.60;7.07;;;7.00;99.90;;;;;;4936559;28;20098;-84
2023/04/05 09:18:17;;;;;;;10.75;6.32;;;6.00;99.90;;;;;;4951357;28;20061;-85
2023/04/05 09:20:43;;;;;;;8.93;5.32;;;6.40;99.90;;;;;;4934647;28;20059;-84
2023/04/05 09:23:08;;;;;;;13.45;5.78;;;6.20;99.90;;;;;;4936559;28;20058;-84
2023/04/05 09:25:37;;;;;;;8.95;5.80;;;6.50;99.90;;;;;;4951679;28;20085;-84
2023/04/05 09:28:05;;;;;;;11.23;5.45;;;6.50;99.90;;;;;;4952839;28;20065;-85
2023/04/05 09:30:31;;;;;;;10.00;5.35;;;6.40;99.90;;;;;;4936552;28;20396;-84
2023/04/05 09:32:58;;;;;;;10.75;5.53;;;6.50;99.90;;;;;;4951978;28;20121;-85
2023/04/05 09:35:27;;;;;;;11.40;4.90;;;6.60;99.90;;;;;;4936046;28;20046;-84
2023/04/05 09:37:54;;;;;;;7.82;4.25;;;6.70;99.90;;;;;;4935791;28;20043;-84
2023/04/05 09:40:21;;;;;;;8.48;4.43;;;6.90;99.90;;;;;;4951433;28;20403;-84
2023/04/05 09:42:47;;;;;;;11.80;4.80;;;6.80;99.90;;;;;;4935504;28;20046;-84
2023/04/05 09:45:14;;;;;;;9.80;4.10;;;6.90;99.90;;;;;;4935449;28;20054;-85
2023/04/05 09:47:40;;;;;;;11.75;4.32;;;7.60;99.90;;;;;;4951797;28;20064;-85
2023/04/05 09:50:17;;;;;;;9.93;4.57;;;7.00;99.90;;;;;;4952368;28;20549;-85
2023/04/05 09:52:44;;;;;;;9.13;4.15;;;7.10;99.90;;;;;;4933986;28;20096;-85
2023/04/05 09:55:10;;;;;;;12.18;3.70;;;7.20;99.90;;;;;;4935765;28;20049;-85
2023/04/05 09:57:39;;;;;;;9.55;4.50;;;7.20;99.90;;;;;;4935272;28;20042;-84
2023/04/05 10:00:15;;;;;;;10.88;4.78;;;7.30;99.90;;;;;;4935139;28;20042;-85
2023/04/05 10:02:41;;;;;;;12.43;4.80;;;7.40;99.90;;;;;;4935485;28;20050;-85
2023/04/05 10:05:14;;;;;;;11.18;5.07;;;7.50;99.90;;;;;;4936259;28;20050;-84
2023/04/05 10:07:42;;;;;;;9.27;4.50;;;7.50;99.90;;;;;;4934590;28;20039;-85
2023/04/05 10:10:11;;;;;;;11.82;4.20;;;7.50;99.90;;;;;;4935778;28;20073;-85
2023/04/05 10:12:40;;;;;;;8.77;4.22;;;7.50;99.90;;;;;;4935445;28;20050;-84
2023/04/05 10:15:07;;;;;;;7.63;3.92;;;7.70;99.90;;;;;;4934855;28;20051;-84
2023/04/05 10:17:38;;;;;;;8.35;3.72;;;7.80;99.90;;;;;;4935631;28;20525;-85
2023/04/05 10:20:15;;;;;;;20.08;4.47;;;7.90;99.90;;;;;;4951327;28;20054;-85
2023/04/05 10:22:50;;;;;;;6.88;3.50;;;8.00;99.90;;;;;;4934023;28;20086;-85
2023/04/05 10:25:43;;;;;;;9.13;3.97;;;7.90;99.90;;;;;;4936021;28;20043;-85
2023/04/05 10:28:17;;;;;;;10.32;3.63;;;7.90;99.90;;;;;;4950682;28;20039;-84
2023/04/05 10:30:46;;;;;;;7.25;3.30;;;8.00;99.90;;;;;;4935651;28;20141;-84
2023/04/05 10:33:28;;;;;;;9.88;3.83;;;8.20;99.90;;;;;;4951272;28;20110;-84
2023/04/05 10:36:04;;;;;;;10.88;3.25;;;8.40;99.90;;;;;;4933910;28;20076;-82
2023/04/05 10:38:41;;;;;;;9.23;4.57;;;8.70;99.90;;;;;;4945199;29;20090;-83
2023/04/05 10:41:13;;;;;;;9.00;4.22;;;9.00;99.90;;;;;;4920525;28;20138;-85
2023/04/05 10:43:40;;;;;;;9.63;4.32;;;8.50;99.90;;;;;;4942729;28;20050;-83
2023/04/05 10:46:07;;;;;;;11.25;4.50;;;8.80;99.90;;;;;;4935771;28;20031;-84
2023/04/05 10:48:43;;;;;;;13.02;5.78;;;9.30;99.90;;;;;;4934905;28;20137;-83
2023/04/05 10:51:10;;;;;;;9.25;4.85;;;9.10;99.90;;;;;;4934722;28;20105;-83
2023/04/05 10:53:37;;;;;;;13.93;5.07;;;9.40;99.90;;;;;;4936072;28;20050;-83
2023/04/05 10:56:04;;;;;;;9.52;4.60;;;9.60;99.90;;;;;;4938197;28;20054;-82
2023/04/05 10:58:31;;;;;;;8.32;4.13;;;9.80;99.90;;;;;;4936152;28;20057;-83
2023/04/05 11:00:58;;;;;;;8.20;4.28;;;9.90;99.90;;;;;;4939577;28;20395;-83
2023/04/05 11:03:43;;;;;;;9.48;4.68;;;9.80;99.90;;;;;;4950987;28;20077;-82
2023/04/05 11:06:31;;;;;;;16.13;4.95;;;9.90;99.90;;;;;;4950820;28;20049;-83
2023/04/05 11:09:10;;;;;;;13.73;4.10;;;9.90;99.90;;;;;;4952174;28;20034;-83
2023/04/05 11:11:41;;;;;;;10.05;4.43;;;10.10;99.90;;;;;;4915750;29;20418;-82
2023/04/05 11:14:22;;;;;;;5.95;3.80;;;10.00;99.90;;;;;;4916828;29;20043;-83
2023/04/05 11:16:53;;;;;;;6.15;3.80;;;10.00;99.90;;;;;;4914877;29;20043;-82
2023/04/05 11:19:19;;;;;;;7.93;4.07;;;10.00;99.90;;;;;;4907142;29;20510;-82
2023/04/05 11:21:45;;;;;;;23.10;4.88;;;10.00;99.90;;;;;;4910479;29;20043;-82
2023/04/05 11:24:18;;;;;;;7.60;3.92;;;9.90;99.90;;;;;;4925142;29;20908;-83
2023/04/05 11:26:53;;;;;;;8.00;3.95;;;9.70;99.90;;;;;;4911388;29;20046;-83
2023/04/05 11:29:46;;;;;;;6.18;3.70;;;9.50;99.90;;;;;;4924950;29;20050;-83
2023/04/05 11:32:12;;;;;;;11.40;3.72;;;9.20;99.90;;;;;;4909820;29;20051;-83
2023/04/05 11:34:41;;;;;;;8.05;3.65;;;9.10;99.90;;;;;;4925808;29;20043;-81
2023/04/05 11:37:07;;;;;;;8.65;3.88;;;9.10;99.90;;;;;;4908151;29;20056;-83
2023/04/05 11:39:33;;;;;;;9.48;3.95;;;9.20;99.90;;;;;;4913649;29;20514;-84
2023/04/05 11:42:05;;;;;;;10.25;3.35;;;9.30;99.90;;;;;;4916317;29;20048;-83
2023/04/05 11:44:39;;;;;;;13.15;4.13;;;9.40;99.90;;;;;;4919873;29;20593;-83
2023/04/05 11:47:05;;;;;;;14.63;3.97;;;9.50;99.90;;;;;;4918845;29;20062;-84
2023/04/05 11:49:33;;;;;;;10.85;4.80;;;9.60;99.90;;;;;;4932911;29;20051;-84
2023/04/05 11:52:10;;;;;;;16.55;8.57;;;9.60;99.90;;;;;;4934238;29;20047;-84
2023/04/05 11:54:35;;;;;;;9.98;3.75;;;9.80;99.90;;;;;;4908562;29;20050;-83
2023/04/05 11:57:02;;;;;;;8.75;4.05;;;9.50;99.90;;;;;;4919547;28;20410;-84
2023/04/05 11:59:35;;;;;;;9.43;3.97;;;9.30;99.90;;;;;;4934345;29;20172;-83
2023/04/05 12:02:06;;;;;;;19.00;4.20;;;9.10;99.90;;;;;;4919315;29;20059;-83
2023/04/05 12:04:32;;;;;;;19.00;4.38;;;9.10;99.90;;;;;;4924843;29;20118;-84
2023/04/05 12:07:19;;;;;;;18.55;8.48;;;9.20;99.90;;;;;;4922416;29;20082;-85
2023/04/05 12:09:58;;;;;;;8.88;4.30;;;9.20;99.90;;;;;;4909606;28;20057;-83
2023/04/05 12:12:24;;;;;;;7.53;3.60;;;9.10;99.90;;;;;;4937737;28;20054;-84
2023/04/05 12:14:49;;;;;;;6.50;3.80;;;9.10;99.90;;;;;;4937522;28;20050;-85
2023/04/05 12:17:17;;;;;;;9.80;4.15;;;9.10;99.90;;;;;;4936440;28;20085;-84
2023/04/05 12:19:46;;;;;;;9.45;4.40;;;9.20;99.90;;;;;;4938581;28;20124;-89
2023/04/05 12:22:12;;;;;;;12.43;4.20;;;9.40;99.90;;;;;;4936565;28;20059;-84
2023/04/05 12:24:38;;;;;;;6.03;3.35;;;9.30;99.90;;;;;;4937689;28;20046;-85
2023/04/05 12:27:04;;;;;;;10.50;3.90;;;9.30;99.90;;;;;;4936737;28;20058;-84
2023/04/05 12:29:30;;;;;;;60.42;7.70;;;9.70;99.90;;;;;;4939963;28;20038;-85
2023/04/05 12:31:56;;;;;;;131.82;12.07;;;9.50;99.90;;;;;;4937296;28;20518;-84
2023/04/05 12:34:24;;;;;;;261.42;18.63;;;9.70;99.90;;;;;;4936057;28;20189;-83
2023/04/05 12:36:51;;;;;;;8.55;4.18;;;9.80;99.90;;;;;;4937047;28;20439;-85
2023/04/05 12:39:17;;;;;;;6.20;3.53;;;9.80;99.40;;;;;;4938168;28;20043;-85
2023/04/05 12:41:43;;;;;;;24.05;4.82;;;9.70;98.70;;;;;;4953101;28;20050;-86
2023/04/05 12:44:26;;;;;;;9.65;3.78;;;9.60;98.50;;;;;;4937336;28;20043;-85